createdAt,value
2023-05-23T00:02:13.556Z,3.70
2023-05-23T00:04:58.671Z,3.67
2023-05-23T00:07:42.993Z,3.63
2023-05-23T00:10:28.542Z,3.93
2023-05-23T00:13:14.756Z,4.00
2023-05-23T00:15:59.051Z,3.63
2023-05-23T00:18:43.292Z,3.80
2023-05-23T00:21:27.562Z,4.47
2023-05-23T00:24:11.752Z,4.03
2023-05-23T00:26:59.105Z,4.40
2023-05-23T00:29:43.030Z,3.78
2023-05-23T00:32:27.114Z,4.03
2023-05-23T00:35:11.270Z,4.27
2023-05-23T00:37:55.675Z,4.10
2023-05-23T00:40:39.815Z,4.10
2023-05-23T00:43:25.878Z,3.97
2023-05-23T00:46:11.630Z,4.30
2023-05-23T00:48:56.443Z,4.40
2023-05-23T00:51:42.432Z,3.80
2023-05-23T00:54:31.270Z,4.00
2023-05-23T00:57:15.223Z,4.00
2023-05-23T01:00:00.448Z,3.70
2023-05-23T01:02:47.360Z,4.10
2023-05-23T01:05:31.883Z,4.40
2023-05-23T01:08:16.688Z,4.43
2023-05-23T01:11:07.321Z,4.80
2023-05-23T01:13:58.353Z,4.13
2023-05-23T01:16:49.883Z,4.20
2023-05-23T01:19:50.673Z,4.30
2023-05-23T01:23:01.531Z,4.63
2023-05-23T01:26:05.588Z,4.53
2023-05-23T01:28:56.113Z,4.43
2023-05-23T01:31:45.320Z,4.60
2023-05-23T01:34:31.606Z,5.05
2023-05-23T01:37:18.832Z,4.30
2023-05-23T01:40:02.757Z,4.70
2023-05-23T01:42:49.042Z,4.67
2023-05-23T01:45:35.095Z,4.53
2023-05-23T01:48:20.505Z,4.23
2023-05-23T01:51:04.683Z,4.73
2023-05-23T01:53:48.952Z,4.05
2023-05-23T01:56:33.338Z,4.30
2023-05-23T01:59:18.350Z,4.32
2023-05-23T02:02:03.672Z,4.47
2023-05-23T02:04:47.589Z,4.47
2023-05-23T02:07:31.513Z,4.20
2023-05-23T02:10:15.555Z,3.73
2023-05-23T02:12:59.519Z,3.70
2023-05-23T02:15:46.077Z,4.45
2023-05-23T02:18:31.596Z,3.92
2023-05-23T02:21:15.473Z,3.50
2023-05-23T02:23:59.384Z,5.03
2023-05-23T02:26:43.408Z,4.53
2023-05-23T02:29:27.523Z,4.00
2023-05-23T02:32:11.811Z,4.43
2023-05-23T02:34:57.635Z,4.33
2023-05-23T02:37:41.902Z,5.03
2023-05-23T02:40:25.829Z,4.70
2023-05-23T02:43:09.811Z,4.63
2023-05-23T02:45:53.764Z,4.80
2023-05-23T02:48:37.760Z,4.10
2023-05-23T02:51:24.336Z,5.07
2023-05-23T02:54:08.353Z,4.57
2023-05-23T02:56:54.992Z,4.63
2023-05-23T02:59:39.646Z,4.90
2023-05-23T03:02:24.174Z,4.70
2023-05-23T03:05:09.360Z,4.80
2023-05-23T03:07:54.714Z,4.60
2023-05-23T03:10:38.763Z,4.47
2023-05-23T03:13:23.275Z,4.43
2023-05-23T03:16:07.661Z,4.82
2023-05-23T03:18:51.865Z,4.90
2023-05-23T03:21:36.383Z,4.57
2023-05-23T03:24:21.644Z,4.20
2023-05-23T03:27:07.151Z,4.40
2023-05-23T03:29:51.632Z,4.93
2023-05-23T03:32:36.124Z,5.15
2023-05-23T03:35:20.360Z,5.00
2023-05-23T03:38:04.267Z,4.40
2023-05-23T03:40:50.954Z,5.20
2023-05-23T03:43:34.932Z,4.63
2023-05-23T03:46:18.936Z,4.27
2023-05-23T03:49:03.531Z,5.13
2023-05-23T03:51:47.419Z,4.37
2023-05-23T03:54:33.470Z,4.72
2023-05-23T03:57:18.673Z,5.00
2023-05-23T04:00:02.507Z,4.50
2023-05-23T04:02:50.271Z,4.50
2023-05-23T04:05:35.818Z,5.03
2023-05-23T04:08:22.235Z,4.90
2023-05-23T04:11:08.016Z,5.00
2023-05-23T04:13:55.818Z,4.60
2023-05-23T04:16:42.006Z,4.40
2023-05-23T04:19:26.896Z,4.72
2023-05-23T04:22:10.936Z,4.65
2023-05-23T04:24:54.877Z,4.68
2023-05-23T04:27:40.698Z,4.50
2023-05-23T04:30:26.979Z,5.00
2023-05-23T04:33:11.897Z,4.90
2023-05-23T04:35:57.466Z,5.90
2023-05-23T04:38:41.989Z,6.15
2023-05-23T04:41:26.095Z,5.03
2023-05-23T04:44:30.544Z,5.20
2023-05-23T04:47:37.314Z,6.03
2023-05-23T04:50:26.273Z,5.22
2023-05-23T04:53:10.257Z,6.00
2023-05-23T04:55:55.348Z,5.78
2023-05-23T04:58:40.767Z,6.03
2023-05-23T05:01:26.620Z,5.35
2023-05-23T05:04:12.424Z,4.30
2023-05-23T05:06:57.459Z,4.70
2023-05-23T05:09:41.396Z,4.53
2023-05-23T05:12:27.845Z,3.90
2023-05-23T05:15:12.935Z,4.15
2023-05-23T05:17:59.009Z,4.40
2023-05-23T05:20:44.460Z,4.20
2023-05-23T05:23:29.643Z,3.88
2023-05-23T05:26:14.548Z,3.85
2023-05-23T05:28:58.943Z,4.47
2023-05-23T05:31:45.426Z,4.80
2023-05-23T05:34:29.885Z,5.88
2023-05-23T05:37:15.668Z,4.03
2023-05-23T05:40:06.372Z,4.25
2023-05-23T05:42:52.170Z,5.25
2023-05-23T05:45:36.124Z,5.00
2023-05-23T05:48:21.132Z,5.75
2023-05-23T05:51:05.953Z,6.07
2023-05-23T05:53:52.596Z,4.75
2023-05-23T05:56:37.256Z,4.78
2023-05-23T05:59:21.435Z,3.85
2023-05-23T06:02:05.683Z,4.93
2023-05-23T06:04:49.579Z,5.55
2023-05-23T06:07:33.686Z,5.10
2023-05-23T06:10:19.296Z,5.05
2023-05-23T06:13:04.535Z,4.80
2023-05-23T06:15:50.102Z,5.57
2023-05-23T06:18:34.508Z,5.68
2023-05-23T06:21:18.606Z,6.65
2023-05-23T06:24:06.788Z,6.85
2023-05-23T06:26:52.545Z,4.97
2023-05-23T06:29:37.050Z,5.35
2023-05-23T06:32:21.056Z,4.45
2023-05-23T06:35:05.446Z,4.20
2023-05-23T06:37:50.778Z,3.85
2023-05-23T06:40:35.819Z,4.05
2023-05-23T06:43:21.410Z,4.40
2023-05-23T06:46:09.620Z,4.22
2023-05-23T06:48:59.495Z,5.63
2023-05-23T06:51:52.534Z,4.70
2023-05-23T06:54:36.663Z,4.45
2023-05-23T06:57:20.961Z,5.75
2023-05-23T07:00:07.803Z,4.10
2023-05-23T07:03:01.193Z,4.20
2023-05-23T07:05:45.996Z,4.00
2023-05-23T07:08:32.349Z,4.90
2023-05-23T07:11:18.321Z,3.83
2023-05-23T07:14:08.675Z,4.07
2023-05-23T07:16:57.802Z,4.70
2023-05-23T07:19:41.868Z,4.05
2023-05-23T07:22:25.824Z,4.28
2023-05-23T07:25:10.594Z,3.85
2023-05-23T07:27:54.916Z,3.45
2023-05-23T07:30:39.799Z,4.65
2023-05-23T07:33:25.408Z,4.25
2023-05-23T07:36:13.625Z,4.38
2023-05-23T07:38:57.639Z,4.68
2023-05-23T07:41:41.660Z,4.78
2023-05-23T07:44:25.568Z,4.40
2023-05-23T07:47:10.938Z,4.00
2023-05-23T07:49:56.873Z,3.78
2023-05-23T07:52:41.420Z,3.47
2023-05-23T07:55:28.350Z,5.00
2023-05-23T07:58:12.509Z,4.45
2023-05-23T08:00:58.108Z,4.03
2023-05-23T08:04:01.875Z,4.53
2023-05-23T08:07:03.561Z,3.70
2023-05-23T08:10:03.139Z,3.45
2023-05-23T08:12:47.337Z,3.70
2023-05-23T08:15:35.949Z,3.47
2023-05-23T08:18:26.788Z,3.75
2023-05-23T08:21:10.809Z,4.45
2023-05-23T08:23:56.134Z,4.30
2023-05-23T08:26:40.300Z,4.38
2023-05-23T08:29:28.278Z,4.35
2023-05-23T08:32:12.583Z,3.95
2023-05-23T08:34:56.918Z,4.43
2023-05-23T08:37:42.125Z,4.88
2023-05-23T08:40:32.611Z,4.72
2023-05-23T08:43:29.342Z,4.75
2023-05-23T08:46:13.952Z,4.47
2023-05-23T08:49:01.266Z,4.63
2023-05-23T08:51:48.350Z,3.28
2023-05-23T08:54:37.480Z,3.78
2023-05-23T08:57:23.127Z,4.47
2023-05-23T09:00:15.175Z,3.58
2023-05-23T09:03:00.314Z,4.38
2023-05-23T09:05:59.010Z,4.40
2023-05-23T09:08:46.133Z,3.65
2023-05-23T09:11:36.144Z,3.40
2023-05-23T09:14:26.984Z,3.78
2023-05-23T09:17:19.358Z,3.58
2023-05-23T09:20:05.840Z,4.30
2023-05-23T09:22:59.323Z,4.20
2023-05-23T09:25:48.530Z,3.58
2023-05-23T09:28:34.813Z,5.80
2023-05-23T09:31:20.168Z,6.65
2023-05-23T09:34:05.111Z,3.90
2023-05-23T09:36:50.481Z,4.20
2023-05-23T09:39:38.922Z,6.20
2023-05-23T09:42:24.076Z,4.05
2023-05-23T09:45:08.944Z,5.28
2023-05-23T09:47:54.514Z,3.58
2023-05-23T09:50:38.708Z,4.57
2023-05-23T09:53:23.108Z,4.47
2023-05-23T09:56:08.790Z,3.80
2023-05-23T09:58:55.290Z,4.22
2023-05-23T10:01:39.543Z,3.83
2023-05-23T10:04:27.491Z,3.90
2023-05-23T10:07:18.156Z,4.50
2023-05-23T10:10:05.764Z,4.05
2023-05-23T10:12:52.870Z,3.90
2023-05-23T10:15:41.059Z,4.22
2023-05-23T10:18:30.543Z,5.68
2023-05-23T10:21:20.976Z,4.32
2023-05-23T10:24:05.513Z,6.90
2023-05-23T10:26:50.200Z,4.82
2023-05-23T10:29:35.559Z,5.00
2023-05-23T10:32:20.150Z,5.05
2023-05-23T10:35:12.293Z,6.78
2023-05-23T10:38:03.595Z,7.57
2023-05-23T10:40:55.634Z,8.88
2023-05-23T10:43:47.093Z,8.40
2023-05-23T10:46:52.864Z,10.07
2023-05-23T10:49:44.618Z,9.93
2023-05-23T10:52:29.268Z,11.25
2023-05-23T10:55:18.418Z,10.00
2023-05-23T10:58:12.941Z,10.13
2023-05-23T11:00:59.166Z,9.05
2023-05-23T11:03:54.769Z,9.73
2023-05-23T11:06:43.718Z,9.60
2023-05-23T11:09:28.091Z,9.27
2023-05-23T11:12:13.494Z,8.18
2023-05-23T11:14:57.487Z,6.70
2023-05-23T11:17:52.727Z,6.22
2023-05-23T11:20:39.196Z,5.22
2023-05-23T11:23:23.999Z,6.25
2023-05-23T11:26:31.124Z,5.00
2023-05-23T11:29:18.155Z,4.70
2023-05-23T11:32:02.115Z,5.75
2023-05-23T11:34:46.236Z,5.47
2023-05-23T11:37:30.693Z,3.65
2023-05-23T11:40:29.135Z,4.00
2023-05-23T11:43:15.249Z,4.00
2023-05-23T11:46:09.861Z,3.25
2023-05-23T11:48:55.107Z,4.22
2023-05-23T11:51:39.160Z,3.40
2023-05-23T11:54:24.899Z,3.35
2023-05-23T11:57:08.984Z,3.42
2023-05-23T11:59:53.261Z,7.68
2023-05-23T12:02:42.311Z,7.05
2023-05-23T12:05:26.279Z,8.38
2023-05-23T12:08:13.372Z,8.73
2023-05-23T12:11:00.515Z,8.18
2023-05-23T12:13:45.056Z,8.27
2023-05-23T12:16:30.070Z,8.88
2023-05-23T12:19:16.381Z,8.20
2023-05-23T12:22:07.477Z,8.60
2023-05-23T12:24:54.259Z,8.48
2023-05-23T12:27:38.842Z,8.30
2023-05-23T12:30:22.698Z,8.07
2023-05-23T12:33:09.840Z,10.77
2023-05-23T12:35:55.209Z,9.57
2023-05-23T12:38:40.975Z,8.95
2023-05-23T12:41:24.914Z,10.40
2023-05-23T12:44:08.797Z,9.13
2023-05-23T12:46:52.716Z,8.90
2023-05-23T12:49:37.269Z,9.02
2023-05-23T12:52:22.590Z,9.90
2023-05-23T12:55:07.376Z,9.30
2023-05-23T12:57:51.374Z,9.77
2023-05-23T13:00:35.313Z,10.10
2023-05-23T13:03:19.634Z,9.77
2023-05-23T13:06:04.237Z,9.50
2023-05-23T13:08:50.871Z,9.32
2023-05-23T13:11:34.942Z,9.32
2023-05-23T13:14:18.946Z,9.30
2023-05-23T13:17:02.802Z,9.18
2023-05-23T13:19:49.150Z,9.45
2023-05-23T13:22:33.450Z,9.45
2023-05-23T13:25:18.917Z,8.70
2023-05-23T13:28:04.157Z,8.13
2023-05-23T13:30:48.679Z,8.43
2023-05-23T13:33:32.952Z,8.18
2023-05-23T13:36:17.026Z,8.98
2023-05-23T13:39:01.319Z,8.65
2023-05-23T13:41:46.677Z,7.15
2023-05-23T13:44:30.606Z,7.53
2023-05-23T13:47:15.939Z,6.78
2023-05-23T13:50:00.136Z,7.15
2023-05-23T13:52:45.931Z,7.20
2023-05-23T13:55:31.671Z,7.85
2023-05-23T13:58:17.104Z,7.82
2023-05-23T14:01:01.079Z,7.47
2023-05-23T14:03:45.051Z,7.18
2023-05-23T14:06:29.137Z,8.00
2023-05-23T14:09:13.257Z,7.75
2023-05-23T14:11:57.334Z,7.85
2023-05-23T14:14:42.934Z,8.98
2023-05-23T14:17:27.458Z,8.82
2023-05-23T14:20:12.200Z,7.55
2023-05-23T14:22:56.361Z,6.82
2023-05-23T14:25:40.992Z,6.40
2023-05-23T14:28:25.231Z,6.00
2023-05-23T14:31:10.758Z,6.55
2023-05-23T14:33:56.150Z,5.97
2023-05-23T14:36:40.055Z,5.45
2023-05-23T14:39:25.673Z,6.18
2023-05-23T14:42:09.714Z,5.40
2023-05-23T14:44:54.200Z,5.18
2023-05-23T14:47:40.753Z,5.50
2023-05-23T14:50:24.729Z,5.80
2023-05-23T14:53:08.684Z,6.05
2023-05-23T14:55:52.641Z,6.15
2023-05-23T14:58:36.621Z,5.97
2023-05-23T15:01:20.652Z,6.30
2023-05-23T15:04:09.416Z,6.22
2023-05-23T15:06:53.868Z,6.47
2023-05-23T15:09:37.748Z,6.63
2023-05-23T15:12:21.672Z,6.78
2023-05-23T15:15:06.255Z,7.53
2023-05-23T15:17:53.303Z,6.95
2023-05-23T15:20:38.927Z,6.78
2023-05-23T15:23:22.923Z,6.97
2023-05-23T15:26:06.944Z,8.50
2023-05-23T15:28:50.992Z,7.65
2023-05-23T15:31:34.941Z,7.95
2023-05-23T15:34:18.991Z,7.75
2023-05-23T15:37:04.580Z,7.50
2023-05-23T15:39:48.851Z,7.50
2023-05-23T15:42:33.249Z,7.13
2023-05-23T15:45:17.622Z,7.00
2023-05-23T15:48:01.889Z,7.78
2023-05-23T15:50:46.243Z,7.45
2023-05-23T15:53:40.095Z,6.45
2023-05-23T15:56:32.565Z,6.78
2023-05-23T15:59:16.677Z,6.60
2023-05-23T16:02:01.476Z,6.90
2023-05-23T16:04:45.524Z,7.97
2023-05-23T16:07:29.472Z,7.28
2023-05-23T16:10:15.006Z,8.02
2023-05-23T16:12:58.917Z,8.00
2023-05-23T16:15:43.419Z,7.65
2023-05-23T16:18:27.668Z,7.90
2023-05-23T16:21:11.697Z,7.50
2023-05-23T16:23:55.521Z,7.57
2023-05-23T16:26:41.033Z,7.47
2023-05-23T16:29:24.981Z,7.00
2023-05-23T16:32:09.546Z,7.32
2023-05-23T16:34:54.779Z,7.72
2023-05-23T16:37:39.154Z,6.68
2023-05-23T16:40:23.146Z,7.40
2023-05-23T16:43:08.521Z,6.40
2023-05-23T16:45:52.481Z,6.60
2023-05-23T16:48:36.528Z,7.63
2023-05-23T16:51:20.506Z,7.60
2023-05-23T16:54:04.574Z,6.65
2023-05-23T16:56:48.496Z,7.47
2023-05-23T16:59:33.976Z,6.82
2023-05-23T17:02:18.170Z,6.80
2023-05-23T17:05:02.249Z,6.93
2023-05-23T17:07:48.260Z,6.95
2023-05-23T17:10:32.189Z,5.60
2023-05-23T17:13:16.096Z,5.75
2023-05-23T17:16:01.464Z,6.00
2023-05-23T17:18:45.799Z,6.03
2023-05-23T17:21:29.682Z,5.95
2023-05-23T17:24:14.157Z,6.18
2023-05-23T17:26:58.115Z,6.70
2023-05-23T17:29:42.209Z,6.75
2023-05-23T17:32:28.274Z,8.18
2023-05-23T17:35:12.201Z,8.00
2023-05-23T17:37:57.892Z,8.38
2023-05-23T17:40:42.262Z,7.80
2023-05-23T17:43:26.337Z,7.22
2023-05-23T17:46:10.361Z,7.18
2023-05-23T17:48:55.639Z,8.32
2023-05-23T17:51:39.524Z,8.35
2023-05-23T17:54:23.547Z,8.80
2023-05-23T17:57:07.721Z,8.95
2023-05-23T17:59:51.615Z,8.93
2023-05-23T18:02:35.621Z,8.70
2023-05-23T18:05:21.402Z,7.70
2023-05-23T18:08:05.556Z,8.27
2023-05-23T18:10:49.560Z,7.10
2023-05-23T18:13:33.433Z,7.20
2023-05-23T18:16:17.526Z,8.63
2023-05-23T18:19:01.599Z,8.35
2023-05-23T18:21:47.035Z,8.40
2023-05-23T18:24:31.026Z,8.70
2023-05-23T18:27:15.006Z,9.07
2023-05-23T18:29:58.984Z,9.65
2023-05-23T18:32:43.154Z,8.23
2023-05-23T18:35:27.061Z,7.33
2023-05-23T18:38:12.595Z,7.75
2023-05-23T18:40:56.863Z,8.05
2023-05-23T18:43:40.922Z,8.43
2023-05-23T18:46:25.825Z,8.13
2023-05-23T18:49:09.888Z,8.73
2023-05-23T18:51:54.560Z,7.80
2023-05-23T18:54:39.814Z,7.53
2023-05-23T18:57:23.830Z,7.43
2023-05-23T19:00:09.245Z,6.90
2023-05-23T19:02:53.371Z,6.60
2023-05-23T19:05:37.621Z,7.07
2023-05-23T19:08:21.687Z,9.43
2023-05-23T19:11:07.534Z,11.00
2023-05-23T19:13:51.478Z,10.80
2023-05-23T19:16:36.310Z,11.47
2023-05-23T19:19:20.739Z,9.97
2023-05-23T19:22:04.730Z,8.93
2023-05-23T19:24:48.638Z,9.93
2023-05-23T19:27:34.042Z,9.83
2023-05-23T19:30:17.888Z,9.17
2023-05-23T19:33:01.871Z,8.87
2023-05-23T19:35:45.764Z,8.50
2023-05-23T19:38:29.886Z,8.07
2023-05-23T19:41:13.859Z,8.50
2023-05-23T19:43:59.105Z,7.90
2023-05-23T19:46:43.111Z,7.47
2023-05-23T19:49:26.984Z,7.30
2023-05-23T19:52:10.832Z,7.03
2023-05-23T19:54:54.650Z,6.90
2023-05-23T19:57:38.899Z,7.53
2023-05-23T20:00:24.219Z,7.00
2023-05-23T20:03:08.505Z,6.50
2023-05-23T20:05:52.589Z,5.70
2023-05-23T20:08:36.461Z,5.60
2023-05-23T20:11:20.730Z,5.60
2023-05-23T20:14:04.666Z,5.83
2023-05-23T20:16:49.872Z,5.60
2023-05-23T20:19:33.879Z,5.47
2023-05-23T20:22:17.930Z,4.93
2023-05-23T20:25:01.916Z,4.77
2023-05-23T20:27:45.945Z,4.97
2023-05-23T20:30:30.744Z,4.90
2023-05-23T20:33:16.260Z,4.93
2023-05-23T20:36:00.119Z,4.63
2023-05-23T20:38:43.956Z,5.00
2023-05-23T20:41:29.536Z,5.20
2023-05-23T20:44:14.343Z,10.73
2023-05-23T20:46:58.326Z,10.60
2023-05-23T20:49:43.580Z,7.47
2023-05-23T20:52:27.812Z,7.73
2023-05-23T20:55:11.927Z,5.60
2023-05-23T20:57:56.176Z,5.37
2023-05-23T21:00:40.184Z,5.87
2023-05-23T21:03:24.373Z,5.10
2023-05-23T21:06:10.251Z,5.17
2023-05-23T21:08:54.011Z,5.23
2023-05-23T21:11:37.908Z,5.27
2023-05-23T21:14:21.858Z,4.63
2023-05-23T21:17:06.296Z,4.80
2023-05-23T21:19:50.402Z,4.83
2023-05-23T21:22:35.811Z,5.10
2023-05-23T21:25:19.890Z,4.33
2023-05-23T21:28:03.893Z,4.53
2023-05-23T21:30:47.851Z,5.13
2023-05-23T21:33:31.928Z,5.33
2023-05-23T21:36:15.947Z,4.73
2023-05-23T21:39:01.862Z,5.00
2023-05-23T21:41:45.899Z,5.10
2023-05-23T21:44:29.813Z,5.23
2023-05-23T21:47:13.624Z,4.87
2023-05-23T21:49:57.577Z,4.70
2023-05-23T21:52:41.559Z,4.83
2023-05-23T21:55:27.361Z,4.40
2023-05-23T21:58:11.264Z,4.77
2023-05-23T22:00:55.206Z,4.70
2023-05-23T22:03:39.279Z,4.43
2023-05-23T22:06:23.411Z,4.80
2023-05-23T22:09:10.212Z,4.50
2023-05-23T22:11:55.896Z,4.50
2023-05-23T22:14:39.884Z,4.40
2023-05-23T22:17:26.355Z,4.43
2023-05-23T22:20:14.648Z,4.70
2023-05-23T22:23:02.247Z,4.13
2023-05-23T22:25:46.111Z,4.30
2023-05-23T22:28:31.416Z,4.23
2023-05-23T22:31:15.751Z,4.50
2023-05-23T22:33:59.979Z,3.97
2023-05-23T22:36:43.971Z,4.40
2023-05-23T22:39:28.023Z,4.27
2023-05-23T22:42:12.077Z,4.47
2023-05-23T22:44:57.608Z,4.00
2023-05-23T22:47:41.801Z,4.00
2023-05-23T22:50:27.140Z,3.93
2023-05-23T22:53:11.678Z,3.93
2023-05-23T22:55:55.774Z,4.63
2023-05-23T22:58:39.737Z,3.93
2023-05-23T23:01:25.050Z,4.17
2023-05-23T23:04:09.082Z,4.50
2023-05-23T23:06:53.881Z,4.50
2023-05-23T23:09:37.754Z,4.73
2023-05-23T23:12:21.538Z,4.70
2023-05-23T23:15:06.128Z,5.20
2023-05-23T23:17:54.200Z,4.57
2023-05-23T23:20:39.030Z,5.87
2023-05-23T23:23:23.218Z,6.00
2023-05-23T23:26:07.241Z,6.37
2023-05-23T23:28:51.521Z,7.30
2023-05-23T23:31:35.399Z,8.13
2023-05-23T23:34:20.951Z,8.00
2023-05-23T23:37:04.944Z,7.47
2023-05-23T23:39:48.892Z,8.33
2023-05-23T23:42:32.696Z,8.30
2023-05-23T23:45:16.749Z,7.87
2023-05-23T23:48:00.878Z,7.97
2023-05-23T23:50:46.221Z,8.30
2023-05-23T23:53:30.203Z,8.23
2023-05-23T23:56:14.356Z,7.77
2023-05-23T23:58:58.349Z,8.47
